Latest Weather Observations for Mount William

IDV60801

Issued at 10:35 pm EST Thursday 24 April 2014 (issued every 30 minutes, with the page automatically refreshed every 10 minutes)

About weather observations | Map of weather stations | Latest weather observations for VIC | Other Formats
Station Details ID: 079103 Name: MOUNT WILLIAM Lat: -37.30 Lon: 142.60 Height: 1150.0 m
Data from the previous 72 hours. | See also: Recent months at Mount William
Date/Time
EST
Temp
°C
App
Temp
°C
Dew
Point
Rel
Hum
%
Delta-T
°C
Wind Press
QNH
hPa
Press
MSL
hPa
Rain
since 9 am
mm
Dir
 
Spd
km/h
Gust
km/h
Spd
kts
Gust
kts
24/10:30pm 1.9 -3.1 1.6 98 0.1 S 17 22 9 12 - - 0.0
24/10:00pm 2.2 -3.1 1.9 98 0.1 S 19 24 10 13 - - 0.0
24/09:30pm 2.3 -2.9 2.2 99 0.0 S 19 24 10 13 - - 0.0
24/09:00pm 2.5 -2.9 2.4 99 0.0 S 20 24 11 13 - - 0.0
24/08:30pm 2.6 -2.3 2.0 96 0.3 S 17 22 9 12 - - 0.0
24/08:00pm 2.9 -2.4 1.9 93 0.4 S 19 22 10 12 - - 0.0
24/07:30pm 3.1 -1.8 2.2 94 0.4 S 17 22 9 12 - - 0.0
24/07:00pm 3.2 -2.1 1.9 91 0.6 S 19 22 10 12 - - 0.0
24/06:30pm 3.6 -1.9 1.6 87 0.8 SSW 20 26 11 14 - - 0.0
24/06:00pm 4.0 -1.3 2.0 87 0.9 S 19 26 10 14 - - 0.0
24/05:30pm 4.7 0.2 2.2 84 1.1 SSW 15 19 8 10 - - 0.0
24/05:00pm 5.5 0.6 2.2 79 1.4 S 17 24 9 13 - - 0.0
24/04:30pm 6.5 1.4 3.1 79 1.5 SSW 19 26 10 14 - - 0.0
24/04:00pm 6.4 1.0 2.5 76 1.7 SSW 20 28 11 15 - - 0.0
24/03:30pm 6.8 2.4 2.9 76 1.8 S 15 20 8 11 - - 0.0
24/03:00pm 6.9 1.2 2.6 74 1.9 SSW 22 28 12 15 - - 0.0
24/02:30pm 6.8 1.6 2.7 75 1.8 SSW 19 30 10 16 - - 0.0
24/02:00pm 6.2 0.9 1.7 73 2.0 SW 19 30 10 16 - - 0.0
24/01:30pm 6.3 1.3 1.6 72 2.0 SW 17 28 9 15 - - 0.0
24/01:00pm 6.2 0.6 1.5 72 2.0 SSW 20 35 11 19 - - 0.0
24/12:30pm 5.8 -0.4 1.9 76 1.7 SSW 24 39 13 21 - - 0.0
24/12:00pm 5.3 -0.1 2.5 82 1.2 SW 20 35 11 19 - - 0.0
24/11:30am 5.0 -0.4 4.4 96 0.3 SW 22 39 12 21 - - 0.0
24/11:00am 4.1 -1.8 4.0 99 0.0 SW 24 43 13 23 - - 0.0
24/10:30am 4.0 -1.1 3.9 99 0.0 WSW 20 35 11 19 - - 0.0
24/10:00am 3.8 -2.9 3.7 99 0.0 SW 28 46 15 25 - - 0.0
24/09:30am 3.5 -1.7 3.4 99 0.0 WSW 20 44 11 24 - - 0.0
24/09:00am 4.2 -3.2 4.1 99 0.0 WSW 32 54 17 29 - - 3.6
24/08:55am 4.3 -2.3 4.2 99 0.0 WSW 28 54 15 29 - - 3.6
24/08:30am 5.3 -0.3 5.2 99 0.0 WSW 24 41 13 22 - - 3.4
24/08:00am 5.3 -2.1 5.2 99 0.0 W 33 54 18 29 - - 3.2
24/07:30am 5.8 -0.9 5.7 99 0.0 WSW 30 54 16 29 - - 3.0
24/07:00am 6.5 0.0 6.4 99 0.0 WSW 30 56 16 30 - - 3.0
24/06:30am 7.4 1.5 7.3 99 0.0 WSW 28 46 15 25 - - 1.0
24/06:01am 7.4 1.5 7.3 99 0.0 W 28 48 15 26 - - 0.6
24/06:00am 7.3 1.7 7.2 99 0.0 W 26 46 14 25 - - 0.6
24/05:30am 7.1 0.7 7.0 99 0.0 WSW 30 50 16 27 - - 0.4
24/05:07am 6.8 0.7 6.7 99 0.0 W 28 56 15 30 - - 0.4
24/05:00am 6.8 0.7 6.7 99 0.0 W 28 46 15 25 - - 0.4
24/04:42am 6.7 0.2 6.6 99 0.0 W 30 48 16 26 - - 0.2
24/04:30am 6.8 0.3 6.7 99 0.0 W 30 44 16 24 - - 0.2
24/04:00am 6.6 -0.3 6.5 99 0.0 W 32 61 17 33 - - 0.2
24/03:34am 6.6 0.5 6.5 99 0.0 W 28 52 15 28 - - 0.2
24/03:30am 6.6 0.5 6.5 99 0.0 W 28 43 15 23 - - 0.2
24/03:07am 6.6 0.1 6.5 99 0.0 W 30 54 16 29 - - 0.2
24/03:00am 6.6 0.1 6.5 99 0.0 W 30 48 16 26 - - 0.2
24/02:39am 6.0 -0.3 5.9 99 0.0 W 28 46 15 25 - - 0.2
24/02:30am 5.9 -0.8 5.6 98 0.1 W 30 43 16 23 - - 0.2
24/02:11am 6.3 -1.1 4.9 91 0.7 W 33 54 18 29 - - 0.2
24/02:00am 6.7 -1.3 3.9 82 1.3 W 35 52 19 28 - - 0.2
24/01:43am 6.9 -1.2 3.2 77 1.7 W 35 56 19 30 - - 0.2
24/01:30am 7.0 -0.8 2.7 74 1.9 W 33 48 18 26 - - 0.2
24/01:07am 7.3 -0.6 2.4 71 2.2 W 33 54 18 29 - - 0.2
24/01:00am 7.4 -0.5 2.3 70 2.3 WNW 33 50 18 27 - - 0.2
24/12:38am 7.1 -0.2 2.2 71 2.2 WNW 30 50 16 27 - - 0.2
24/12:30am 7.1 -0.6 2.2 71 2.2 WNW 32 48 17 26 - - 0.2
24/12:24am 7.2 -0.1 2.5 72 2.1 WNW 30 48 16 26 - - 0.2
24/12:00am 7.0 -0.3 2.7 74 1.9 W 30 37 16 20 - - 0.2
 
Date/Time
EST
Temp
°C
App
Temp
°C
Dew
Point
Rel
Hum
%
Delta-T
°C
Wind Press
QNH
hPa
Press
MSL
hPa
Rain
since 9 am
mm
Dir
 
Spd
km/h
Gust
km/h
Spd
kts
Gust
kts
23/11:30pm 6.8 -0.8 3.1 77 1.7 W 32 41 17 22 - - 0.2
23/11:00pm 6.7 -0.1 3.3 79 1.5 W 28 39 15 21 - - 0.2
23/10:30pm 7.0 -0.1 3.3 77 1.7 W 30 41 16 22 - - 0.2
23/10:00pm 7.1 -0.6 3.2 76 1.8 W 33 44 18 24 - - 0.2
23/09:30pm 7.0 -0.1 3.3 77 1.7 W 30 43 16 23 - - 0.2
23/09:00pm 7.3 -0.2 3.2 75 1.9 W 32 41 17 22 - - 0.2
23/08:30pm 7.3 -0.5 2.8 73 2.0 W 33 44 18 24 - - 0.2
23/08:00pm 7.4 -0.1 3.3 75 1.9 W 32 46 17 25 - - 0.2
23/07:30pm 7.5 0.6 2.8 72 2.1 W 28 39 15 21 - - 0.2
23/07:00pm 7.7 0.4 2.6 70 2.3 W 30 41 16 22 - - 0.2
23/06:30pm 7.7 0.9 3.2 73 2.0 W 28 37 15 20 - - 0.2
23/06:00pm 7.7 1.8 4.1 78 1.7 W 24 30 13 16 - - 0.2
23/05:30pm 8.0 3.2 4.6 79 1.6 W 19 24 10 13 - - 0.2
23/05:00pm 8.6 3.7 5.2 79 1.6 W 20 28 11 15 - - 0.2
23/04:30pm 9.2 4.4 4.8 74 2.1 W 19 30 10 16 - - 0.2
23/04:00pm 8.8 4.0 4.4 74 2.1 W 19 24 10 13 - - 0.2
23/03:30pm 9.7 6.5 5.3 74 2.1 W 11 15 6 8 - - 0.2
23/03:00pm 9.9 6.7 5.1 72 2.3 W 11 22 6 12 - - 0.2
23/02:30pm 9.0 6.3 5.6 79 1.7 W 9 19 5 10 - - 0.2
23/02:00pm 8.3 5.5 5.1 80 1.5 W 9 13 5 7 - - 0.2
23/01:30pm 8.1 4.0 4.5 78 1.7 W 15 24 8 13 - - 0.2
23/01:00pm 8.0 4.2 3.8 75 1.9 W 13 19 7 10 - - 0.2
23/12:30pm 7.6 4.4 5.2 85 1.1 WSW 11 17 6 9 - - 0.2
23/12:00pm 7.0 4.5 4.7 85 1.1 WSW 7 15 4 8 - - 0.2
23/11:30am 6.6 3.6 3.9 83 1.2 W 9 17 5 9 - - 0.2
23/11:00am 6.6 3.9 3.9 83 1.2 W 7 11 4 6 - - 0.2
23/10:30am 6.7 3.8 2.8 76 1.7 WNW 7 11 4 6 - - 0.0
23/10:00am 6.9 3.9 2.2 72 2.1 WNW 7 11 4 6 - - 0.0
23/09:30am 6.0 3.0 2.3 77 1.6 W 7 11 4 6 - - 0.0
23/09:00am 6.2 3.4 2.1 75 1.8 W 6 9 3 5 - - 0.0
23/08:30am 5.4 2.3 0.0 68 2.2 W 6 9 3 5 - - 0.0
23/08:00am 4.2 0.2 2.7 90 0.7 WSW 13 17 7 9 - - 0.0
23/07:30am 4.1 -0.9 1.6 84 1.1 WSW 17 19 9 10 - - 0.0
23/07:00am 4.5 -0.6 0.5 75 1.7 WSW 17 17 9 9 - - 0.0
23/06:30am 4.7 -0.6 -0.9 67 2.2 WSW 17 19 9 10 - - 0.0
23/06:00am 5.2 0.8 -2.4 58 3.0 WSW 11 13 6 7 - - 0.0
23/05:30am 4.6 0.0 1.5 80 1.3 WSW 15 19 8 10 - - 0.0
23/05:00am 4.6 -1.6 2.1 84 1.1 WSW 24 28 13 15 - - 0.0
23/04:30am 4.5 -0.9 2.4 86 0.9 WSW 20 24 11 13 - - 0.0
23/04:00am 4.7 -2.2 2.7 87 0.9 WSW 28 33 15 18 - - 0.0
23/03:30am 4.9 -1.5 3.1 88 0.8 WSW 26 30 14 16 - - 0.0
23/03:00am 4.9 -1.9 2.9 87 0.9 WSW 28 32 15 17 - - 0.0
23/02:30am 4.9 -0.4 2.9 87 0.9 WSW 20 26 11 14 - - 0.0
23/02:00am 5.0 -1.1 2.9 86 0.9 WSW 24 30 13 16 - - 0.0
23/01:30am 5.0 -0.7 2.7 85 1.0 WSW 22 28 12 15 - - 0.0
23/01:00am 5.3 -0.4 2.8 84 1.1 WSW 22 24 12 13 - - 0.0
23/12:30am 5.3 0.2 3.2 86 0.9 WSW 19 22 10 12 - - 0.0
23/12:00am 5.3 -0.3 3.5 88 0.8 WSW 22 26 12 14 - - 0.0
 
Date/Time
EST
Temp
°C
App
Temp
°C
Dew
Point
Rel
Hum
%
Delta-T
°C
Wind Press
QNH
hPa
Press
MSL
hPa
Rain
since 9 am
mm
Dir
 
Spd
km/h
Gust
km/h
Spd
kts
Gust
kts
22/11:30pm 5.1 0.0 3.3 88 0.8 WSW 19 20 10 11 - - 0.0
22/11:00pm 5.5 1.2 3.3 86 1.0 SW 15 20 8 11 - - 0.0
22/10:30pm 5.8 0.7 3.3 84 1.1 SW 19 24 10 13 - - 0.0
22/10:00pm 5.6 1.0 3.6 87 0.9 WSW 17 20 9 11 - - 0.0
22/09:30pm 5.6 1.0 3.6 87 0.9 WSW 17 20 9 11 - - 0.0
22/09:00pm 5.8 0.8 4.8 93 0.5 WSW 20 26 11 14 - - 0.0
22/08:30pm 5.7 1.0 5.0 95 0.3 WSW 19 24 10 13 - - 0.0
22/08:00pm 6.1 1.8 5.4 95 0.3 WSW 17 20 9 11 - - 0.0
22/07:30pm 6.2 2.0 5.5 95 0.3 SW 17 22 9 12 - - 0.0
22/07:00pm 6.5 2.8 6.4 99 0.0 S 15 19 8 10 - - 0.0
22/06:30pm 7.0 3.4 6.9 99 0.0 S 15 22 8 12 - - 0.0
22/06:00pm 7.5 5.1 7.2 98 0.1 S 9 13 5 7 - - 0.0
22/05:30pm 7.9 5.4 6.7 92 0.6 WSW 9 11 5 6 - - 0.0
22/05:00pm 9.3 6.6 7.3 87 1.0 WSW 11 17 6 9 - - 0.0
22/04:30pm 9.2 7.4 7.0 86 1.1 W 6 11 3 6 - - 0.0
22/04:00pm 9.9 7.5 7.2 83 1.4 WSW 9 17 5 9 - - 0.0
22/03:30pm 9.7 7.8 7.6 87 1.1 W 7 15 4 8 - - 0.0
22/03:00pm 9.7 7.9 8.1 90 0.8 WSW 7 13 4 7 - - 0.0
22/02:30pm 10.0 7.4 7.9 87 1.1 W 11 15 6 8 - - 0.0
22/02:00pm 10.0 7.6 9.9 99 0.1 WSW 13 24 7 13 - - 0.0
22/01:30pm 9.6 7.4 9.5 99 0.1 WSW 11 20 6 11 - - 0.0
22/01:00pm 9.5 5.6 9.4 99 0.1 WSW 20 26 11 14 - - 0.0
22/12:30pm 9.3 7.1 9.2 99 0.1 WSW 11 19 6 10 - - 0.0
22/12:00pm 9.6 7.8 9.5 99 0.1 WSW 9 17 5 9 - - 0.0
22/11:30am 9.4 7.6 9.3 99 0.1 W 9 19 5 10 - - 0.0
22/11:00am 9.4 7.2 9.3 99 0.1 W 11 22 6 12 - - 0.0
22/10:30am 9.5 8.1 9.4 99 0.1 W 7 17 4 9 - - 0.0
22/10:00am 9.4 7.6 9.3 99 0.1 WSW 9 19 5 10 - - 0.0
22/09:30am 9.2 6.2 9.1 99 0.1 W 15 26 8 14 - - 0.0
22/09:00am 9.3 5.5 9.2 99 0.1 WSW 19 32 10 17 - - 9.8
22/08:30am 9.3 5.3 9.2 99 0.1 W 20 32 11 17 - - 9.8
22/08:00am 9.3 4.2 9.2 99 0.1 W 26 41 14 22 - - 9.8
22/07:39am 9.2 2.7 9.1 99 0.1 W 33 54 18 29 - - 9.6
22/07:30am 9.3 2.5 9.2 99 0.1 W 35 54 19 29 - - 9.6
22/07:09am 9.3 1.3 9.0 98 0.2 W 41 61 22 33 - - 9.4
22/07:00am 9.3 2.0 8.7 96 0.3 W 37 54 20 29 - - 9.4
22/06:58am 9.4 2.5 8.8 96 0.3 W 35 48 19 26 - - 9.2
22/06:31am 10.1 -0.8 9.0 93 0.6 W 56 74 30 40 - - 8.6
22/06:30am 10.1 -1.0 8.9 92 0.6 W 57 74 31 40 - - 8.6
22/06:00am 9.5 2.7 9.4 99 0.1 W 35 67 19 36 - - 8.0
22/05:43am 9.0 3.1 8.9 99 0.1 W 30 48 16 26 - - 7.2
22/05:30am 9.2 2.9 9.1 99 0.1 W 32 43 17 23 - - 5.8
22/05:13am 9.0 2.7 8.9 99 0.1 W 32 50 17 27 - - 5.6
22/05:00am 9.0 1.7 8.9 99 0.1 W 37 52 20 28 - - 5.6
22/04:30am 9.2 -0.9 9.1 99 0.1 W 52 76 28 41 - - 5.6
22/04:00am 9.4 -1.6 9.3 99 0.1 W 57 80 31 43 - - 4.8
22/03:30am 10.1 1.8 10.0 99 0.1 W 44 70 24 38 - - 3.4
22/03:29am 9.9 2.1 9.8 99 0.1 W 41 67 22 36 - - 3.2
22/03:00am 9.3 2.1 9.2 99 0.1 W 37 54 20 29 - - 1.6
22/02:30am 10.7 3.2 8.1 84 1.3 W 37 56 20 30 - - 0.2
22/02:00am 11.7 3.4 7.8 77 2.0 WNW 41 59 22 32 - - 0.2
22/01:33am 12.0 4.8 7.5 74 2.3 NW 35 56 19 30 - - 0.2
22/01:30am 11.8 4.6 7.5 75 2.2 NW 35 52 19 28 - - 0.2
22/01:00am 11.4 4.6 7.7 78 1.9 WNW 33 52 18 28 - - 0.2
22/12:47am 11.5 4.1 6.8 73 2.4 WNW 35 56 19 30 - - 0.2
22/12:30am 11.9 4.9 7.0 72 2.5 NW 33 46 18 25 - - 0.2
22/12:01am 11.3 4.1 6.0 70 2.6 NW 33 52 18 28 - - 0.2
22/12:00am 11.4 4.2 6.1 70 2.7 NW 33 52 18 28 - - 0.2
 
Date/Time
EST
Temp
°C
App
Temp
°C
Dew
Point
Rel
Hum
%
Delta-T
°C
Wind Press
QNH
hPa
Press
MSL
hPa
Rain
since 9 am
mm
Dir
 
Spd
km/h
Gust
km/h
Spd
kts
Gust
kts
21/11:44pm 12.2 6.4 6.3 67 3.0 WNW 26 35 14 19 - - 0.2
21/11:30pm 12.1 2.1 6.2 67 3.0 NNW 48 78 26 42 - - 0.2
21/11:00pm 12.0 2.8 6.3 68 2.9 NNW 44 80 24 43 - - 0.2

Other Formats:

Comma delimited format used in spreadsheet applications
http://www.bom.gov.au/fwo/IDV60801/IDV60801.94833.axf

JavaScript Object Notation format (JSON) in row-major order
http://www.bom.gov.au/fwo/IDV60801/IDV60801.94833.json